Clearfield, PA

10:48 AM EST on December 05, 2016 (GMT -0500)
Clearfield-Lawrence | | Change Station

Elev 1516 ft 41.05 °N, 78.41 °W | Updated 8 minutes ago

Overcast
Overcast
38 °F
Feels Like 31 °F
N
10
Wind Variable Wind from West
Gusts 17 mph

Today
High -- | Low -- °F
--% Chance of Precip.
Yesterday
High -- | Low -- °F
Precip. -- in
Pressure 30.01 in
Visibility 10.0 miles
Clouds Mostly Cloudy 2200 ft
Mostly Cloudy 2700 ft
Overcast 3500 ft
Windchill 31 °F
Dew Point 32 °F
Humidity 79%
Rainfall 0.17 in
Snow Depth Not available.
7:23 AM 4:45 PM
Waxing Crescent, 32% visible
SPECI KFIG 051540Z AUTO 26009G15KT 10SM BKN022 BKN027 OVC035 03/00 A3001 RMK AO2 T00330000
Pressure 30.01 in
Visibility 10.0 miles
Clouds Mostly Cloudy 2200 ft
Mostly Cloudy 2700 ft
Overcast 3500 ft
Windchill 31 °F
Dew Point 32 °F
Humidity 79%
Rainfall 0.17 in
Snow Depth Not available.
7:23 AM 4:45 PM
Waxing Crescent, 32% visible
SPECI KFIG 051540Z AUTO 26009G15KT 10SM BKN022 BKN027 OVC035 03/00 A3001 RMK AO2 T00330000

10-Day Weather Forecast

Almanac

Astronomy

Dec. 05, 2016 Rise Set
Actual Time
Civil Twilight
Nautical Twilight
Astronomical Twilight
Moon
Length of Visible Light
Length of Day
Tomorrow will be .
, % of the Moon is Illuminated

Today's Extremes

State Highs State Lows

Community

WunderPhotos

Upload Photos

1,955,794 photos uploaded!

WunderBlog® & News

Nearby

Air Quality

  Air Quality AQ Index Pollutant
Not available.

Snow Depth

Station Depth Elevation

Earthquake Activity

City Distance Mag. Time & Date
Minimum magnitude displayed is 2.5.

Coastal Water Temperatures

Place Temperature

Stations

Nearby Weather Stations

Station Location Temp. Windchill Dew Point Humidity Wind Precip. Elev Updated Type
                   

Watches & Warnings

There are currently no watches in effect.